Time;durP1;ratioP1;P1;durP2;ratioP2;P2;SDS_P1;SDS_P2;PMS_P1;PMS_P2;Temp;Humidity;BMP_temperature;BMP_pressure;BME280_temperature;BME280_humidity;BME280_pressure;Samples;Min_cycle;Max_cycle;Signal;HPM_P1;HPM_P2
2023/05/14 00:00:56;;;;;;;;;;;;;;;15.17;61.33;100311.94;4368249;32;33788;-85
2023/05/14 00:03:23;;;;;;;;;;;;;;;14.90;62.51;100316.09;4370065;32;35027;-85
2023/05/14 00:05:52;;;;;;;;;;;;;;;15.25;61.66;100301.75;4368959;32;34142;-86
2023/05/14 00:08:19;;;;;;;;;;;;;;;14.96;62.18;100295.38;4369089;32;33229;-86
2023/05/14 00:10:47;;;;;;;;;;;;;;;14.85;62.60;100303.03;4363036;32;31947;-86
2023/05/14 00:13:15;;;;;;;;;;;;;;;14.85;62.50;100297.72;4369739;32;32819;-86
2023/05/14 00:15:42;;;;;;;;;;;;;;;14.72;63.05;100299.34;4383910;32;34137;-86
2023/05/14 00:18:11;;;;;;;;;;;;;;;15.05;62.18;100294.87;4367392;32;34573;-85
2023/05/14 00:20:39;;;;;;;;;;;;;;;14.97;62.39;100294.41;4371784;32;33089;-86
2023/05/14 00:23:08;;;;;;;;;;;;;;;15.13;62.11;100288.25;4369617;32;33012;-86
2023/05/14 00:25:36;;;;;;;;;;;;;;;15.00;61.81;100288.94;4355026;32;33061;-84
2023/05/14 00:28:03;;;;;;;;;;;;;;;14.99;62.23;100284.53;4380605;32;33862;-84
2023/05/14 00:30:33;;;;;;;;;;;;;;;14.72;62.93;100294.03;4368789;32;32089;-84
2023/05/14 00:33:02;;;;;;;;;;;;;;;14.66;62.86;100286.34;4367449;32;33907;-84
2023/05/14 00:35:29;;;;;;;;;;;;;;;14.99;61.95;100281.88;4366617;32;33930;-83
2023/05/14 00:37:57;;;;;;;;;;;;;;;15.06;61.46;100272.66;4375799;32;34227;-84
2023/05/14 00:40:26;;;;;;;;;;;;;;;15.07;61.47;100274.34;4376230;32;32353;-84
2023/05/14 00:42:54;;;;;;;;;;;;;;;14.79;62.37;100274.13;4351647;32;33277;-84
2023/05/14 00:45:32;;;;;;;;;;;;;;;14.79;62.73;100274.97;4377637;32;33518;-84
2023/05/14 00:48:01;;;;;;;;;;;;;;;14.48;63.50;100270.44;4377048;32;35062;-84
2023/05/14 00:50:28;;;;;;;;;;;;;;;14.64;63.12;100256.34;4376039;32;32163;-88
2023/05/14 00:52:56;;;;;;;;;;;;;;;14.45;63.73;100270.56;4377421;32;33470;-87
2023/05/14 00:55:25;;;;;;;;;;;;;;;14.68;62.70;100260.56;4373898;32;32631;-86
2023/05/14 00:58:04;;;;;;;;;;;;;;;14.62;62.61;100250.25;4362106;32;32936;-86
2023/05/14 01:00:32;;;;;;;;;;;;;;;14.68;62.39;100257.91;4388930;32;33321;-87
2023/05/14 01:03:00;;;;;;;;;;;;;;;14.13;64.35;100252.78;4376878;32;34691;-86
2023/05/14 01:05:47;;;;;;;;;;;;;;;14.14;63.93;100247.37;4388858;32;33055;-86
2023/05/14 01:08:35;;;;;;;;;;;;;;;14.51;62.52;100246.34;4375705;32;33976;-85
2023/05/14 01:11:07;;;;;;;;;;;;;;;14.39;62.91;100244.31;4375900;32;32077;-86
2023/05/14 01:13:39;;;;;;;;;;;;;;;14.41;63.07;100252.22;4385796;32;34357;-84
2023/05/14 01:16:07;;;;;;;;;;;;;;;14.36;62.81;100244.47;4375053;32;34056;-84
2023/05/14 01:18:37;;;;;;;;;;;;;;;14.50;62.47;100247.31;4376247;32;33774;-83
2023/05/14 01:21:05;;;;;;;;;;;;;;;14.85;60.92;100248.06;4375356;32;32785;-83
2023/05/14 01:23:32;;;;;;;;;;;;;;;14.58;62.05;100239.78;4377137;32;33648;-83
2023/05/14 01:26:00;;;;;;;;;;;;;;;14.69;61.35;100230.37;4376285;32;33838;-84
2023/05/14 01:28:28;;;;;;;;;;;;;;;14.50;62.06;100241.13;4363384;32;32707;-83
2023/05/14 01:30:57;;;;;;;;;;;;;;;14.74;61.17;100238.97;4368017;32;33367;-83
2023/05/14 01:33:26;;;;;;;;;;;;;;;14.37;62.63;100230.25;4375101;32;32888;-83
2023/05/14 01:35:54;;;;;;;;;;;;;;;14.65;61.74;100226.16;4373348;32;33573;-83
2023/05/14 01:38:22;;;;;;;;;;;;;;;14.66;61.41;100225.22;4367991;32;32538;-83
2023/05/14 01:40:50;;;;;;;;;;;;;;;14.73;61.52;100216.00;4362816;32;31933;-83
2023/05/14 01:43:18;;;;;;;;;;;;;;;14.62;61.64;100213.03;4374555;32;34271;-83
2023/05/14 01:45:46;;;;;;;;;;;;;;;14.81;60.97;100208.44;4364277;32;34253;-84
2023/05/14 01:48:14;;;;;;;;;;;;;;;14.53;61.61;100204.62;4376028;32;33872;-84
2023/05/14 01:50:43;;;;;;;;;;;;;;;14.46;62.01;100200.53;4376554;32;33458;-85
2023/05/14 01:53:10;;;;;;;;;;;;;;;14.41;62.38;100193.75;4388683;32;33406;-86
2023/05/14 01:55:38;;;;;;;;;;;;;;;14.49;62.23;100192.44;4388387;32;32619;-85
2023/05/14 01:58:06;;;;;;;;;;;;;;;14.68;61.11;100180.84;4375971;32;33518;-85
2023/05/14 02:00:33;;;;;;;;;;;;;;;14.93;60.53;100175.87;4355139;32;33072;-86
2023/05/14 02:03:01;;;;;;;;;;;;;;;14.75;60.98;100183.03;4388343;32;34836;-86
2023/05/14 02:05:28;;;;;;;;;;;;;;;14.55;61.09;100191.25;4389695;32;35084;-86
2023/05/14 02:07:56;;;;;;;;;;;;;;;14.67;61.26;100189.72;4389394;32;34215;-87
2023/05/14 02:10:23;;;;;;;;;;;;;;;14.50;61.24;100178.22;4377426;32;32242;-87
2023/05/14 02:12:52;;;;;;;;;;;;;;;14.67;60.56;100179.09;4376925;32;32956;-87
2023/05/14 02:15:19;;;;;;;;;;;;;;;14.80;60.50;100180.13;4389675;32;34052;-87
2023/05/14 02:17:46;;;;;;;;;;;;;;;14.86;60.15;100185.13;4376705;32;33274;-87
2023/05/14 02:20:15;;;;;;;;;;;;;;;14.69;60.72;100182.53;4388840;32;34182;-87
2023/05/14 02:22:44;;;;;;;;;;;;;;;14.69;60.74;100186.06;4364229;32;33022;-87
2023/05/14 02:25:13;;;;;;;;;;;;;;;14.62;61.10;100181.12;4388607;32;34435;-87
2023/05/14 02:27:42;;;;;;;;;;;;;;;14.70;60.80;100189.56;4375391;32;33274;-87
2023/05/14 02:30:10;;;;;;;;;;;;;;;14.35;61.70;100184.31;4376361;32;32370;-85
2023/05/14 02:32:38;;;;;;;;;;;;;;;14.31;61.49;100182.75;4363586;32;33458;-85
2023/05/14 02:35:06;;;;;;;;;;;;;;;14.47;61.06;100183.66;4375673;32;32704;-85
2023/05/14 02:37:34;;;;;;;;;;;;;;;14.25;62.28;100175.13;4374664;32;34789;-84
2023/05/14 02:40:03;;;;;;;;;;;;;;;14.65;60.79;100173.88;4363851;32;33437;-84
2023/05/14 02:42:32;;;;;;;;;;;;;;;14.53;61.51;100182.53;4361274;32;33276;-85
2023/05/14 02:45:00;;;;;;;;;;;;;;;14.49;61.36;100175.66;4387157;32;33113;-85
2023/05/14 02:47:32;;;;;;;;;;;;;;;14.38;62.30;100172.66;4386896;32;34948;-84
2023/05/14 02:50:00;;;;;;;;;;;;;;;14.29;62.31;100171.34;4363096;32;31913;-85
2023/05/14 02:52:27;;;;;;;;;;;;;;;14.49;61.48;100175.66;4374557;32;35644;-85
2023/05/14 02:54:55;;;;;;;;;;;;;;;14.54;61.17;100171.81;4362723;32;33393;-87
2023/05/14 02:57:23;;;;;;;;;;;;;;;14.65;61.10;100175.66;4388095;32;32931;-87
2023/05/14 02:59:50;;;;;;;;;;;;;;;14.57;61.90;100169.00;4375087;32;33377;-87
2023/05/14 03:02:20;;;;;;;;;;;;;;;14.94;60.07;100164.28;4387919;32;34103;-87
2023/05/14 03:04:49;;;;;;;;;;;;;;;14.68;60.70;100170.19;4356262;32;32191;-87
2023/05/14 03:07:16;;;;;;;;;;;;;;;14.27;62.23;100159.97;4388008;32;33380;-87
2023/05/14 03:09:44;;;;;;;;;;;;;;;14.53;60.97;100162.13;4363379;32;32781;-87
2023/05/14 03:12:13;;;;;;;;;;;;;;;14.63;60.92;100162.47;4373785;32;32762;-87
2023/05/14 03:14:40;;;;;;;;;;;;;;;14.39;61.99;100167.28;4388065;32;32737;-87
2023/05/14 03:17:08;;;;;;;;;;;;;;;14.14;62.84;100161.53;4387691;32;34907;-87
2023/05/14 03:19:36;;;;;;;;;;;;;;;14.20;62.75;100167.41;4375658;32;33726;-87
2023/05/14 03:22:03;;;;;;;;;;;;;;;14.53;62.03;100167.44;4375691;32;32840;-87
2023/05/14 03:24:31;;;;;;;;;;;;;;;14.63;61.07;100161.63;4375835;32;34312;-88
2023/05/14 03:26:59;;;;;;;;;;;;;;;14.80;60.51;100158.87;4374525;32;34026;-87
2023/05/14 03:29:26;;;;;;;;;;;;;;;14.52;61.21;100160.38;4349490;32;846175;-87
2023/05/14 03:31:55;;;;;;;;;;;;;;;14.56;61.30;100151.31;4375532;32;34710;-84
2023/05/14 03:34:23;;;;;;;;;;;;;;;14.32;62.01;100158.75;4361868;32;32681;-84
2023/05/14 03:36:51;;;;;;;;;;;;;;;14.01;62.96;100148.94;4368998;32;33917;-84
2023/05/14 03:39:20;;;;;;;;;;;;;;;14.11;62.95;100156.41;4362345;32;32735;-88
2023/05/14 03:41:50;;;;;;;;;;;;;;;14.24;62.75;100160.09;4363003;32;33899;-87
2023/05/14 03:44:18;;;;;;;;;;;;;;;13.84;64.06;100163.06;4375824;32;34168;-87
2023/05/14 03:46:46;;;;;;;;;;;;;;;14.16;63.10;100160.53;4375145;32;34334;-87
2023/05/14 03:49:14;;;;;;;;;;;;;;;14.03;63.50;100155.00;4362451;32;32198;-84
2023/05/14 03:51:41;;;;;;;;;;;;;;;14.59;61.59;100153.81;4375151;32;33163;-85
2023/05/14 03:54:09;;;;;;;;;;;;;;;14.45;61.89;100143.03;4375358;32;34857;-84
2023/05/14 03:56:37;;;;;;;;;;;;;;;14.52;61.37;100143.56;4362436;32;33345;-85
2023/05/14 03:59:05;;;;;;;;;;;;;;;14.13;62.53;100144.75;4388515;32;32880;-86
2023/05/14 04:01:33;;;;;;;;;;;;;;;14.04;62.64;100154.06;4382588;32;34625;-86
2023/05/14 04:04:01;;;;;;;;;;;;;;;14.20;62.17;100146.16;4362186;32;32994;-86
2023/05/14 04:06:33;;;;;;;;;;;;;;;13.98;62.62;100143.75;4373960;32;33104;-86
2023/05/14 04:09:03;;;;;;;;;;;;;;;14.03;62.48;100149.69;4385908;32;31845;-86
2023/05/14 04:11:31;;;;;;;;;;;;;;;14.16;62.37;100141.09;4367771;32;33857;-86
2023/05/14 04:14:05;;;;;;;;;;;;;;;14.45;61.22;100143.03;4374231;32;35455;-85
2023/05/14 04:16:34;;;;;;;;;;;;;;;14.10;62.13;100147.59;4371572;32;33720;-85
2023/05/14 04:19:08;;;;;;;;;;;;;;;14.09;63.09;100141.38;4374378;32;35091;-85
2023/05/14 04:21:36;;;;;;;;;;;;;;;14.48;60.87;100140.25;4379057;32;34388;-86
2023/05/14 04:24:06;;;;;;;;;;;;;;;14.53;60.47;100135.53;4362524;32;34028;-86
2023/05/14 04:26:34;;;;;;;;;;;;;;;14.44;60.78;100146.63;4383998;32;33257;-86
2023/05/14 04:29:02;;;;;;;;;;;;;;;14.67;60.11;100144.53;4376631;32;32689;-86
2023/05/14 04:31:30;;;;;;;;;;;;;;;14.85;59.15;100135.53;4364790;32;34174;-85
2023/05/14 04:33:58;;;;;;;;;;;;;;;14.58;nan;100136.16;4368735;32;33966;-86
2023/05/14 04:36:30;;;;;;;;;;;;;;;14.28;60.65;100129.78;4375579;32;33726;-86
2023/05/14 04:38:57;;;;;;;;;;;;;;;14.29;60.81;100142.13;4375916;32;32833;-86
2023/05/14 04:41:25;;;;;;;;;;;;;;;14.63;59.98;100140.34;4363363;32;33670;-86
2023/05/14 04:43:55;;;;;;;;;;;;;;;14.64;59.33;100142.06;4376498;32;33087;-86
2023/05/14 04:46:24;;;;;;;;;;;;;;;14.85;59.17;100135.53;4376326;32;34018;-86
2023/05/14 04:48:51;;;;;;;;;;;;;;;14.67;59.77;100147.19;4376456;32;32494;-87
2023/05/14 04:51:20;;;;;;;;;;;;;;;14.53;59.66;100146.19;4376157;32;33598;-87
2023/05/14 04:53:47;;;;;;;;;;;;;;;14.50;59.83;100141.00;4375614;32;34189;-87
2023/05/14 04:56:15;;;;;;;;;;;;;;;14.29;60.18;100142.13;4376060;32;34021;-87
2023/05/14 04:58:44;;;;;;;;;;;;;;;14.05;61.76;100138.97;4374776;32;32979;-87
2023/05/14 05:01:11;;;;;;;;;;;;;;;14.33;60.43;100135.72;4369489;32;33542;-86
2023/05/14 05:03:40;;;;;;;;;;;;;;;14.34;60.89;100135.66;4371577;32;34216;-87
2023/05/14 05:06:08;;;;;;;;;;;;;;;14.23;60.92;100130.03;4374992;32;34198;-87
2023/05/14 05:08:36;;;;;;;;;;;;;;;14.73;60.00;100133.59;4376546;32;32063;-87
2023/05/14 05:11:07;;;;;;;;;;;;;;;14.55;59.78;100138.09;4376868;32;33943;-87
2023/05/14 05:13:36;;;;;;;;;;;;;;;14.05;62.03;100134.56;4389030;32;34298;-87
2023/05/14 05:16:04;;;;;;;;;;;;;;;14.50;60.18;100130.38;4376231;32;33142;-87
2023/05/14 05:18:36;;;;;;;;;;;;;;;14.21;61.19;100131.06;4376665;32;33814;-86
2023/05/14 05:21:05;;;;;;;;;;;;;;;14.48;60.97;100132.28;4374417;32;33924;-87
2023/05/14 05:23:38;;;;;;;;;;;;;;;14.13;61.04;100122.66;4376456;32;33912;-86
2023/05/14 05:26:09;;;;;;;;;;;;;;;14.13;61.61;100120.84;4376963;32;34901;-87
2023/05/14 05:28:37;;;;;;;;;;;;;;;14.88;59.60;100116.78;4364611;32;32337;-87
2023/05/14 05:31:08;;;;;;;;;;;;;;;14.82;59.05;100119.78;4363886;32;34371;-87
2023/05/14 05:33:41;;;;;;;;;;;;;;;14.58;59.34;100120.19;4362994;32;33221;-87
2023/05/14 05:36:16;;;;;;;;;;;;;;;14.44;60.21;100125.37;4361173;32;34279;-87
2023/05/14 05:38:49;;;;;;;;;;;;;;;14.29;60.72;100131.50;4357070;32;33720;-84
2023/05/14 05:41:17;;;;;;;;;;;;;;;14.34;59.92;100129.47;4363955;32;32738;-84
2023/05/14 05:43:45;;;;;;;;;;;;;;;14.20;61.19;100124.06;4363847;32;33429;-84
2023/05/14 05:46:20;;;;;;;;;;;;;;;14.34;60.29;100127.69;4361889;32;35786;-84
2023/05/14 05:49:00;;;;;;;;;;;;;;;14.43;60.52;100131.66;4362875;32;34132;-85
2023/05/14 05:51:29;;;;;;;;;;;;;;;13.82;61.45;100129.59;4350544;32;33257;-85
2023/05/14 05:53:57;;;;;;;;;;;;;;;14.28;61.20;100129.78;4349092;32;33594;-85
2023/05/14 05:56:31;;;;;;;;;;;;;;;14.42;60.42;100137.88;4349893;32;33233;-86
2023/05/14 05:59:02;;;;;;;;;;;;;;;14.25;60.92;100137.94;4361050;32;33117;-84
2023/05/14 06:01:34;;;;;;;;;;;;;;;14.38;60.87;100146.94;4360566;32;34329;-86
2023/05/14 06:04:05;;;;;;;;;;;;;;;14.60;60.05;100136.06;4367206;32;32862;-85
2023/05/14 06:06:35;;;;;;;;;;;;;;;14.14;61.44;100132.31;4366856;32;32713;-85
2023/05/14 06:09:07;;;;;;;;;;;;;;;13.90;62.33;100137.97;4350614;32;33968;-85
2023/05/14 06:11:37;;;;;;;;;;;;;;;14.08;62.67;100144.12;4360090;32;34541;-85
2023/05/14 06:14:08;;;;;;;;;;;;;;;14.68;60.46;100140.97;4364779;32;34168;-85
2023/05/14 06:16:38;;;;;;;;;;;;;;;14.03;63.35;100143.53;4366127;32;33972;-84
2023/05/14 06:19:08;;;;;;;;;;;;;;;14.54;61.31;100142.56;4359405;32;33069;-85
2023/05/14 06:21:46;;;;;;;;;;;;;;;14.46;62.83;100150.06;4376683;32;32957;-85
2023/05/14 06:24:28;;;;;;;;;;;;;;;14.35;62.33;100155.09;4378517;32;33600;-85
2023/05/14 06:26:56;;;;;;;;;;;;;;;14.36;63.01;100146.19;4360903;32;35034;-85
2023/05/14 06:29:29;;;;;;;;;;;;;;;14.56;62.22;100145.97;4361530;32;33980;-85
2023/05/14 06:32:02;;;;;;;;;;;;;;;14.78;61.59;100144.81;4360486;32;35007;-85
2023/05/14 06:37:14;;;;;;;;;;;;;;;14.78;62.14;100136.84;4366049;32;34619;-86
2023/05/14 06:42:27;;;;;;;;;;;;;;;14.77;62.28;100130.69;4366427;32;33079;-85
2023/05/14 06:44:57;;;;;;;;;;;;;;;14.79;61.83;100126.13;4353345;32;34125;-86
2023/05/14 06:47:25;;;;;;;;;;;;;;;14.51;63.47;100137.41;4366341;32;34210;-86
2023/05/14 06:50:00;;;;;;;;;;;;;;;14.46;64.46;100126.16;4366931;32;34070;-86
2023/05/14 06:52:34;;;;;;;;;;;;;;;14.86;62.27;100118.69;4358260;32;34586;-86
2023/05/14 06:55:07;;;;;;;;;;;;;;;14.72;62.81;100129.22;4366414;32;33497;-86
2023/05/14 06:57:38;;;;;;;;;;;;;;;14.95;62.52;100120.78;4355114;32;33343;-86
2023/05/14 07:00:10;;;;;;;;;;;;;;;14.88;62.58;100114.13;4354365;32;32846;-86
2023/05/14 07:02:45;;;;;;;;;;;;;;;14.84;63.04;100113.41;4367576;32;34226;-85
2023/05/14 07:05:18;;;;;;;;;;;;;;;14.77;63.91;100116.53;4353408;32;33482;-86
2023/05/14 07:07:47;;;;;;;;;;;;;;;15.10;62.48;100109.31;4352866;32;34492;-86
2023/05/14 07:10:15;;;;;;;;;;;;;;;14.96;63.01;100103.06;4357868;32;33336;-86
2023/05/14 07:12:44;;;;;;;;;;;;;;;14.84;63.48;100097.47;4367442;32;35027;-86
2023/05/14 07:18:39;;;;;;;;;;;;;;;14.84;64.29;100097.47;4354275;32;33151;-86
2023/05/14 07:21:12;;;;;;;;;;;;;;;14.91;63.87;100098.00;4353542;32;33932;-85
2023/05/14 07:23:49;;;;;;;;;;;;;;;14.95;63.95;100094.19;4363794;32;34758;-85
2023/05/14 07:26:25;;;;;;;;;;;;;;;14.59;66.28;100092.69;4367217;32;35916;-84
2023/05/14 07:28:54;;;;;;;;;;;;;;;14.54;64.82;100085.91;4360706;32;34251;-86
2023/05/14 07:31:36;;;;;;;;;;;;;;;15.01;63.02;100088.53;4354774;32;31704;-85
2023/05/14 07:34:07;;;;;;;;;;;;;;;14.95;63.38;100098.66;4354675;32;32912;-85
2023/05/14 07:36:37;;;;;;;;;;;;;;;14.98;64.63;100101.16;4349769;32;34093;-86
2023/05/14 07:39:06;;;;;;;;;;;;;;;14.82;63.91;100088.75;4364623;32;33766;-86
2023/05/14 07:41:40;;;;;;;;;;;;;;;14.92;64.16;100083.75;4358795;32;32879;-85
2023/05/14 07:44:12;;;;;;;;;;;;;;;15.12;63.32;100085.25;4358921;32;34225;-86
2023/05/14 07:49:22;;;;;;;;;;;;;;;14.64;65.50;100078.28;4362190;32;33965;-88
2023/05/14 07:51:51;;;;;;;;;;;;;;;14.95;63.21;100072.06;4348647;32;32260;-88
2023/05/14 07:54:33;;;;;;;;;;;;;;;15.25;62.85;100072.97;4364057;32;34471;-88
2023/05/14 07:57:01;;;;;;;;;;;;;;;15.36;62.76;100067.00;4358092;32;34276;-89
2023/05/14 07:59:29;;;;;;;;;;;;;;;14.78;65.28;100070.38;4369976;32;33892;-91
2023/05/14 08:02:14;;;;;;;;;;;;;;;15.07;65.27;100064.25;4362457;32;33192;-90
2023/05/14 08:04:46;;;;;;;;;;;;;;;15.08;64.83;100057.97;4353013;32;33205;-90
2023/05/14 08:07:18;;;;;;;;;;;;;;;15.34;64.61;100058.28;4339950;32;33526;-89
2023/05/14 08:09:46;;;;;;;;;;;;;;;15.52;64.13;100049.16;4357016;32;34375;-91
2023/05/14 08:12:17;;;;;;;;;;;;;;;15.90;61.75;100046.00;4352418;32;33787;-90
2023/05/14 08:15:02;;;;;;;;;;;;;;;15.72;62.62;100050.69;4346577;32;33449;-90
2023/05/14 08:17:51;;;;;;;;;;;;;;;15.61;62.34;100040.63;4378038;32;34111;-89
2023/05/14 08:20:45;;;;;;;;;;;;;;;16.00;62.38;100036.53;4352531;32;34316;-89
2023/05/14 08:23:21;;;;;;;;;;;;;;;15.32;63.07;100033.53;4351706;32;33214;-89
2023/05/14 08:25:52;;;;;;;;;;;;;;;15.37;63.51;100028.81;4365783;32;34323;-90
2023/05/14 08:28:34;;;;;;;;;;;;;;;15.06;63.56;100021.81;4366521;32;35005;-90
2023/05/14 08:31:10;;;;;;;;;;;;;;;14.95;64.86;100026.87;4368267;32;33439;-89
2023/05/14 08:33:48;;;;;;;;;;;;;;;15.35;63.13;100022.72;4354144;32;32583;-90
2023/05/14 08:36:42;;;;;;;;;;;;;;;15.18;64.83;100025.53;4355516;32;32612;-90
2023/05/14 08:41:53;;;;;;;;;;;;;;;15.54;64.52;100014.50;4366425;32;32853;-90
2023/05/14 08:44:32;;;;;;;;;;;;;;;15.67;64.76;100023.47;4369100;32;31871;-90
2023/05/14 08:47:06;;;;;;;;;;;;;;;15.80;64.16;100018.25;4371230;32;33192;-90
2023/05/14 08:49:54;;;;;;;;;;;;;;;15.86;64.35;100007.22;4365037;32;33199;-90
2023/05/14 08:52:31;;;;;;;;;;;;;;;15.82;63.30;100011.03;4365803;32;33670;-91
2023/05/14 08:55:26;;;;;;;;;;;;;;;16.01;63.22;100010.75;4392246;32;33144;-90
2023/05/14 08:58:16;;;;;;;;;;;;;;;15.64;65.50;100025.47;4364809;32;33796;-91
2023/05/14 09:01:07;;;;;;;;;;;;;;;16.00;62.99;100007.22;4363029;32;34877;-91
2023/05/14 09:06:42;;;;;;;;;;;;;;;15.98;62.49;100010.91;4367796;32;33494;-90
2023/05/14 09:09:43;;;;;;;;;;;;;;;15.74;63.12;100026.63;4380620;32;34151;-90
2023/05/14 09:12:39;;;;;;;;;;;;;;;15.90;63.14;100014.06;4379781;32;33099;-91
2023/05/14 09:15:29;;;;;;;;;;;;;;;15.80;63.43;100016.44;4377144;32;34087;-91
2023/05/14 09:18:23;;;;;;;;;;;;;;;16.01;62.80;100011.59;4381448;32;32096;-90
2023/05/14 09:23:57;;;;;;;;;;;;;;;15.80;63.14;100007.59;4353908;32;33827;-90
2023/05/14 09:26:55;;;;;;;;;;;;;;;15.64;63.35;99996.19;4374200;32;33277;-90
2023/05/14 09:29:43;;;;;;;;;;;;;;;15.96;63.33;99983.53;4364598;32;32578;-90
2023/05/14 09:32:19;;;;;;;;;;;;;;;16.13;63.33;99981.50;4341612;32;34483;-90
2023/05/14 09:35:13;;;;;;;;;;;;;;;16.43;61.96;99977.84;4357956;32;33737;-91
2023/05/14 09:40:50;;;;;;;;;;;;;;;15.67;65.08;99988.88;4370645;32;31976;-90
2023/05/14 09:43:43;;;;;;;;;;;;;;;16.11;63.32;99969.25;4368922;32;32956;-91
2023/05/14 09:46:46;;;;;;;;;;;;;;;15.82;63.76;99958.62;4370141;32;34630;-88
2023/05/14 09:49:19;;;;;;;;;;;;;;;15.78;64.86;99957.09;4360039;32;33201;-91
2023/05/14 09:51:57;;;;;;;;;;;;;;;15.17;66.29;99959.97;4349457;32;31900;-92
2023/05/14 09:54:41;;;;;;;;;;;;;;;15.21;66.66;99964.19;4357260;32;32806;-91
2023/05/14 09:57:41;;;;;;;;;;;;;;;15.39;66.38;99954.22;4382843;32;34844;-91
2023/05/14 10:00:31;;;;;;;;;;;;;;;15.74;65.57;99946.75;4392496;32;34119;-91
2023/05/14 10:03:20;;;;;;;;;;;;;;;15.75;66.26;99928.00;4386319;32;33551;-91
2023/05/14 10:06:10;;;;;;;;;;;;;;;15.78;65.44;99918.97;4373074;32;34156;-92
2023/05/14 10:08:49;;;;;;;;;;;;;;;15.26;67.55;99925.69;4369308;32;33264;-92
2023/05/14 10:11:37;;;;;;;;;;;;;;;15.20;67.94;99917.25;4361898;32;33992;-91
2023/05/14 10:14:34;;;;;;;;;;;;;;;15.28;68.11;99899.84;4389988;32;34464;-91
2023/05/14 10:17:22;;;;;;;;;;;;;;;15.69;67.26;99887.63;4374860;32;35946;-92
2023/05/14 10:20:21;;;;;;;;;;;;;;;15.70;67.68;99884.00;4406950;32;34113;-91
2023/05/14 10:26:08;;;;;;;;;;;;;;;15.90;67.19;99845.44;4387076;32;32387;-91
2023/05/14 10:28:51;;;;;;;;;;;;;;;15.51;67.21;99847.87;4377333;32;34767;-90
2023/05/14 10:34:48;;;;;;;;;;;;;;;15.76;65.96;99888.91;4367213;32;34769;-90
2023/05/14 10:37:20;;;;;;;;;;;;;;;16.01;65.78;99882.91;4348209;32;32631;-90
2023/05/14 10:40:05;;;;;;;;;;;;;;;15.67;65.23;99881.56;4377906;32;32432;-91
2023/05/14 10:46:04;;;;;;;;;;;;;;;16.09;64.41;99870.81;4374137;32;32987;-91
2023/05/14 10:48:56;;;;;;;;;;;;;;;16.02;64.75;99880.13;4372483;32;31491;-91
2023/05/14 10:51:51;;;;;;;;;;;;;;;15.49;66.07;99875.53;4351310;32;33818;-91
2023/05/14 10:54:31;;;;;;;;;;;;;;;15.99;64.92;99874.13;4362287;32;33560;-91
2023/05/14 10:57:30;;;;;;;;;;;;;;;15.70;65.26;99868.88;4356827;32;33811;-91
2023/05/14 11:00:11;;;;;;;;;;;;;;;15.86;66.09;99868.78;4347279;32;32781;-91
2023/05/14 11:03:04;;;;;;;;;;;;;;;16.12;64.85;99861.75;4368925;32;34621;-91
2023/05/14 11:05:45;;;;;;;;;;;;;;;15.99;65.67;99867.00;4364153;32;33382;-91
2023/05/14 11:08:33;;;;;;;;;;;;;;;16.26;64.45;99855.50;4361560;32;33189;-92
2023/05/14 11:11:21;;;;;;;;;;;;;;;16.32;64.08;99850.59;4367081;32;33158;-91
2023/05/14 11:14:22;;;;;;;;;;;;;;;15.51;66.28;99847.87;4352492;32;35557;-90
2023/05/14 11:17:17;;;;;;;;;;;;;;;15.04;67.61;99857.00;4391237;32;34685;-93
2023/05/14 11:19:58;;;;;;;;;;;;;;;15.44;66.40;99854.53;4380886;32;33392;-93
2023/05/14 11:22:52;;;;;;;;;;;;;;;15.62;66.41;99853.38;4390108;32;32244;-93
2023/05/14 11:25:47;;;;;;;;;;;;;;;16.03;64.47;99844.53;4375136;32;34622;-92
2023/05/14 11:28:32;;;;;;;;;;;;;;;15.85;64.69;99845.72;4365735;32;33146;-92
2023/05/14 11:31:42;;;;;;;;;;;;;;;16.02;64.29;99848.16;4336443;32;33944;-91
2023/05/14 11:34:36;;;;;;;;;;;;;;;15.68;65.71;99852.16;4318158;32;31953;-92
2023/05/14 11:37:23;;;;;;;;;;;;;;;15.84;66.07;99849.34;4382162;32;33678;-91
2023/05/14 11:40:16;;;;;;;;;;;;;;;15.64;66.73;99857.78;4321836;32;29542;-92
2023/05/14 11:43:09;;;;;;;;;;;;;;;16.02;65.15;99845.50;4370537;32;32581;-91
2023/05/14 11:46:03;;;;;;;;;;;;;;;15.97;65.18;99844.09;4395597;32;33950;-92
2023/05/14 11:49:00;;;;;;;;;;;;;;;15.64;67.12;99847.13;4375163;32;34689;-91
2023/05/14 11:51:57;;;;;;;;;;;;;;;15.55;67.44;99844.06;4365023;32;34181;-91
2023/05/14 12:00:44;;;;;;;;;;;;;;;16.04;66.31;99830.25;4386893;32;32996;-92
2023/05/14 12:06:22;;;;;;;;;;;;;;;16.05;66.46;99821.34;4359550;32;32625;-92
2023/05/14 12:09:10;;;;;;;;;;;;;;;16.29;66.32;99823.34;4386163;32;33041;-92
2023/05/14 12:12:07;;;;;;;;;;;;;;;16.19;67.06;99806.22;4349268;32;34617;-91
2023/05/14 12:14:53;;;;;;;;;;;;;;;15.85;68.67;99803.97;4349617;32;33293;-91
2023/05/14 12:17:50;;;;;;;;;;;;;;;16.06;67.83;99804.41;4395574;32;34533;-91
2023/05/14 12:20:48;;;;;;;;;;;;;;;16.13;68.01;99791.50;4358906;32;31726;-91
2023/05/14 12:23:44;;;;;;;;;;;;;;;15.96;68.34;99792.66;4346897;32;33104;-91
2023/05/14 12:29:20;;;;;;;;;;;;;;;16.02;67.39;99778.06;4368668;32;33355;-91
2023/05/14 12:32:07;;;;;;;;;;;;;;;16.03;67.90;99780.63;4379935;32;32265;-92
2023/05/14 12:34:55;;;;;;;;;;;;;;;15.66;68.44;99781.34;4369482;32;33360;-92
2023/05/14 12:37:38;;;;;;;;;;;;;;;15.45;68.76;99779.06;4366212;32;33195;-92
2023/05/14 12:40:51;;;;;;;;;;;;;;;15.40;69.18;99786.50;4345419;32;32971;-91
2023/05/14 12:43:28;;;;;;;;;;;;;;;15.42;69.40;99784.59;4358406;32;32345;-90
2023/05/14 12:46:22;;;;;;;;;;;;;;;15.59;68.77;99797.69;4357410;32;34615;-91
2023/05/14 12:49:19;;;;;;;;;;;;;;;15.36;69.99;99790.31;4345416;32;33205;-91
2023/05/14 12:51:58;;;;;;;;;;;;;;;15.79;68.14;99776.91;4365188;32;35005;-91
2023/05/14 12:54:49;;;;;;;;;;;;;;;15.70;68.82;99773.03;4348884;32;33390;-93
2023/05/14 12:57:39;;;;;;;;;;;;;;;15.43;69.28;99759.72;4349425;32;33699;-90
2023/05/14 13:00:27;;;;;;;;;;;;;;;15.06;70.99;99756.72;4351797;32;32376;-93
2023/05/14 13:03:17;;;;;;;;;;;;;;;15.19;70.71;99750.63;4393177;32;32604;-93
2023/05/14 13:11:54;;;;;;;;;;;;;;;15.25;71.01;99742.25;4371480;32;32981;-93
2023/05/14 13:14:37;;;;;;;;;;;;;;;15.37;70.81;99737.00;4322011;32;32803;-91
2023/05/14 13:17:31;;;;;;;;;;;;;;;15.30;70.94;99733.03;4372913;32;32951;-90
2023/05/14 13:20:08;;;;;;;;;;;;;;;15.22;70.77;99723.81;4364701;32;32724;-90
2023/05/14 13:22:52;;;;;;;;;;;;;;;15.51;70.71;99708.62;4354501;32;32451;-91
2023/05/14 13:25:38;;;;;;;;;;;;;;;15.45;70.94;99709.03;4339608;32;33192;-91
2023/05/14 13:28:48;;;;;;;;;;;;;;;15.59;70.70;99701.00;4384499;32;33850;-90
2023/05/14 13:31:48;;;;;;;;;;;;;;;15.42;70.86;99699.44;4366330;32;33574;-91
2023/05/14 13:34:40;;;;;;;;;;;;;;;15.24;72.32;99701.50;4376307;32;33441;-92
2023/05/14 13:37:34;;;;;;;;;;;;;;;15.18;72.32;99703.69;4344421;33;34312;-93
2023/05/14 13:40:07;;;;;;;;;;;;;;;15.30;71.85;99690.47;4333924;33;32539;-91
2023/05/14 13:42:48;;;;;;;;;;;;;;;15.19;72.22;99692.09;4324667;33;32907;-92
2023/05/14 13:45:47;;;;;;;;;;;;;;;15.35;71.74;99682.19;4387638;32;35745;-91
2023/05/14 13:48:37;;;;;;;;;;;;;;;15.26;72.52;99683.63;4386409;32;34702;-90
2023/05/14 13:51:25;;;;;;;;;;;;;;;15.03;73.66;99681.59;4363778;32;33978;-92
2023/05/14 13:54:14;;;;;;;;;;;;;;;14.93;73.94;99675.16;4363577;32;37419;-91
2023/05/14 13:56:59;;;;;;;;;;;;;;;14.90;73.95;99670.03;4319488;33;32880;-91
2023/05/14 14:02:49;;;;;;;;;;;;;;;15.16;73.18;99666.56;4396868;32;20004;-91
2023/05/14 14:05:33;;;;;;;;;;;;;;;15.42;72.50;99666.66;4394460;32;34506;-92
2023/05/14 14:08:04;;;;;;;;;;;;;;;15.51;72.23;99664.25;4364012;32;32846;-91
2023/05/14 14:11:21;;;;;;;;;;;;;;;14.90;74.77;99656.75;4377974;32;34228;-88
2023/05/14 14:13:52;;;;;;;;;;;;;;;14.87;74.97;99657.81;4363373;32;31710;-92
2023/05/14 14:16:38;;;;;;;;;;;;;;;14.83;74.85;99662.47;4362622;32;34087;-91
2023/05/14 14:22:03;;;;;;;;;;;;;;;15.03;74.33;99666.50;4375691;32;33521;-89
2023/05/14 14:24:41;;;;;;;;;;;;;;;14.87;75.56;99663.13;4369427;32;32952;-90